Terminal Aerodrome Forecast
Issued by NWS Mobile, AL

Home | Current Version | Previous Version | Text Only | Print | Product List | Glossary On
Versions: 1 2 3 4 5 6 7 8 9 10 11 12 13 14 15 16 17 18 19 20 21 22 23 24 25
000
FTUS44 KMOB 251735
TAFPNS
TAF
KPNS 251735Z 2518/2618 35012G21KT 5SM BR VCSH BKN013 OVC040
     FM252100 18008KT P6SM VCSH SCT020 BKN040
     FM260300 16006KT 4SM BR OVC020
      TEMPO 2610/2614 1SM SHRA BR OVC010
     FM261700 26012KT 4SM BR FEW007 OVC025=

USA.gov is the U.S. government's official web portal to all federal, state and local government web resources and services.